createdAt,value
2018-05-31T00:03:13.523Z,84.00
2018-05-31T00:07:11.640Z,84.80
2018-05-31T00:11:05.798Z,86.20
2018-05-31T00:14:58.982Z,86.10
2018-05-31T00:18:52.945Z,86.90
2018-05-31T00:22:46.847Z,87.40
2018-05-31T00:26:40.756Z,87.60
2018-05-31T00:30:34.043Z,87.60
2018-05-31T00:34:27.508Z,87.50
2018-05-31T00:38:21.144Z,87.40
2018-05-31T00:42:14.347Z,87.50
2018-05-31T00:46:07.610Z,87.50
2018-05-31T00:50:00.783Z,87.20
2018-05-31T00:53:54.108Z,87.00
2018-05-31T00:57:47.275Z,87.00
2018-05-31T01:01:42.120Z,87.20
2018-05-31T01:05:35.375Z,87.40
2018-05-31T01:09:28.584Z,87.50
2018-05-31T01:13:22.957Z,88.20
2018-05-31T01:17:16.242Z,88.10
2018-05-31T01:21:09.343Z,89.60
2018-05-31T01:25:02.555Z,90.00
2018-05-31T01:28:56.060Z,89.80
2018-05-31T01:32:49.200Z,89.40
2018-05-31T01:36:43.085Z,89.70
2018-05-31T01:40:37.025Z,90.50
2018-05-31T01:44:30.240Z,90.10
2018-05-31T01:48:23.436Z,90.10
2018-05-31T01:52:16.572Z,90.00
2018-05-31T01:56:10.523Z,90.10
2018-05-31T02:00:03.713Z,90.10
2018-05-31T02:03:58.199Z,90.20
2018-05-31T02:07:51.338Z,90.20
2018-05-31T02:11:44.520Z,90.50
2018-05-31T02:15:37.763Z,90.70
2018-05-31T02:19:30.865Z,90.80
2018-05-31T02:23:23.990Z,91.10
2018-05-31T02:27:17.262Z,91.40
2018-05-31T02:31:10.568Z,91.90
2018-05-31T02:35:05.150Z,92.10
2018-05-31T02:38:59.095Z,92.10
2018-05-31T02:42:52.555Z,92.20
2018-05-31T02:46:46.041Z,92.50
2018-05-31T02:50:39.443Z,92.70
2018-05-31T02:54:32.767Z,92.80
2018-05-31T02:58:26.042Z,92.90
2018-05-31T03:02:20.885Z,93.00
2018-05-31T03:06:14.025Z,93.20
2018-05-31T03:10:07.230Z,92.90
2018-05-31T03:14:01.911Z,92.70
2018-05-31T03:17:55.306Z,92.70
2018-05-31T03:21:48.515Z,92.50
2018-05-31T03:25:41.684Z,92.40
2018-05-31T03:29:35.077Z,92.60
2018-05-31T03:33:28.666Z,92.70
2018-05-31T03:37:21.812Z,93.20
2018-05-31T03:41:14.989Z,93.20
2018-05-31T03:45:08.193Z,93.10
2018-05-31T03:49:01.313Z,93.30
2018-05-31T03:52:54.799Z,93.30
2018-05-31T03:56:48.303Z,93.20
2018-05-31T04:00:41.509Z,92.40
2018-05-31T04:04:34.720Z,92.20
2018-05-31T04:08:27.861Z,91.70
2018-05-31T04:12:21.027Z,91.50
2018-05-31T04:16:14.747Z,90.90
2018-05-31T04:20:09.105Z,90.40
2018-05-31T04:24:03.090Z,90.40
2018-05-31T04:27:56.284Z,89.90
2018-05-31T04:31:50.264Z,89.10
2018-05-31T04:35:44.127Z,87.70
2018-05-31T04:39:37.273Z,87.70
2018-05-31T04:43:30.762Z,86.40
2018-05-31T04:47:24.703Z,81.60
2018-05-31T04:51:17.846Z,81.50
2018-05-31T04:55:12.108Z,78.30
2018-05-31T04:59:07.383Z,74.40
2018-05-31T05:03:00.545Z,74.40
2018-05-31T05:06:53.721Z,74.60
2018-05-31T05:10:46.846Z,77.30
2018-05-31T05:14:40.934Z,80.40
2018-05-31T05:18:34.392Z,80.40
2018-05-31T05:22:27.524Z,81.80
2018-05-31T05:26:20.779Z,82.10
2018-05-31T05:30:14.040Z,82.30
2018-05-31T05:34:07.244Z,82.60
2018-05-31T05:38:01.204Z,82.70
2018-05-31T05:41:55.162Z,82.00
2018-05-31T05:45:49.745Z,80.60
2018-05-31T05:49:42.899Z,80.50
2018-05-31T05:53:36.054Z,80.70
2018-05-31T05:57:30.244Z,79.90
2018-05-31T06:01:23.428Z,79.90
2018-05-31T06:05:16.539Z,80.30
2018-05-31T06:09:10.818Z,79.40
2018-05-31T06:13:03.929Z,79.30
2018-05-31T06:16:57.161Z,78.90
2018-05-31T06:20:51.172Z,77.40
2018-05-31T06:24:46.327Z,77.30
2018-05-31T06:28:39.661Z,77.30
2018-05-31T06:32:33.555Z,76.10
2018-05-31T06:36:27.051Z,76.10
2018-05-31T06:40:20.217Z,75.10
2018-05-31T06:44:14.170Z,73.20
2018-05-31T06:48:08.112Z,72.20
2018-05-31T06:52:01.509Z,72.20
2018-05-31T06:55:55.645Z,71.60
2018-05-31T06:59:48.875Z,72.50
2018-05-31T07:03:41.807Z,71.60
2018-05-31T07:07:34.937Z,71.30
2018-05-31T07:11:29.464Z,72.10
2018-05-31T07:15:22.680Z,73.00
2018-05-31T07:19:16.012Z,73.20
2018-05-31T07:23:09.126Z,73.50
2018-05-31T07:27:02.423Z,73.20
2018-05-31T07:30:55.664Z,72.90
2018-05-31T07:34:48.863Z,72.20
2018-05-31T07:38:42.073Z,71.80
2018-05-31T07:42:35.300Z,69.60
2018-05-31T07:46:28.471Z,69.10
2018-05-31T07:50:22.674Z,65.80
2018-05-31T07:54:16.632Z,65.80
2018-05-31T07:58:09.827Z,64.60
2018-05-31T08:02:04.017Z,64.20
2018-05-31T08:05:57.857Z,64.60
2018-05-31T08:09:51.082Z,64.40
2018-05-31T08:13:45.305Z,64.50
2018-05-31T08:17:38.853Z,63.60
2018-05-31T08:21:31.992Z,63.30
2018-05-31T08:25:25.292Z,63.40
2018-05-31T08:29:18.811Z,61.20
2018-05-31T08:33:12.546Z,60.60
2018-05-31T08:37:05.715Z,61.20
2018-05-31T08:40:58.896Z,61.30
2018-05-31T08:44:52.123Z,60.80
2018-05-31T08:48:45.272Z,60.80
2018-05-31T08:52:39.553Z,62.50
2018-05-31T08:56:33.548Z,60.50
2018-05-31T09:00:27.046Z,60.50
2018-05-31T09:04:21.039Z,61.10
2018-05-31T09:08:14.984Z,61.20
2018-05-31T09:12:08.896Z,61.00
2018-05-31T09:16:02.126Z,61.00
2018-05-31T09:19:56.231Z,60.30
2018-05-31T09:23:49.759Z,59.70
2018-05-31T09:27:48.840Z,59.00
2018-05-31T09:31:47.681Z,59.30
2018-05-31T09:35:41.320Z,58.50
2018-05-31T09:39:34.510Z,58.40
2018-05-31T09:43:27.676Z,57.50
2018-05-31T09:47:21.566Z,56.50
2018-05-31T09:51:14.890Z,57.00
2018-05-31T09:59:07.466Z,56.70
2018-05-31T10:03:00.697Z,56.60
2018-05-31T10:06:54.758Z,56.90
2018-05-31T10:10:48.462Z,56.90
2018-05-31T10:14:42.455Z,57.10
2018-05-31T10:18:36.395Z,56.50
2018-05-31T10:22:29.501Z,56.50
2018-05-31T10:26:26.159Z,56.40
2018-05-31T10:30:19.300Z,54.60
2018-05-31T10:34:13.331Z,55.20
2018-05-31T10:38:06.445Z,55.20
2018-05-31T10:42:00.643Z,55.20
2018-05-31T10:45:54.293Z,54.50
2018-05-31T10:49:48.032Z,54.40
2018-05-31T10:53:41.282Z,53.70
2018-05-31T10:57:34.477Z,54.00
2018-05-31T11:01:27.609Z,54.40
2018-05-31T11:05:23.515Z,56.10
2018-05-31T11:09:17.699Z,56.10
2018-05-31T11:13:10.879Z,57.10
2018-05-31T11:17:04.177Z,58.60
2018-05-31T11:20:57.316Z,59.30
2018-05-31T11:24:51.359Z,60.80
2018-05-31T11:28:44.627Z,60.90
2018-05-31T11:32:38.760Z,60.70
2018-05-31T11:36:32.767Z,60.00
2018-05-31T11:40:26.333Z,60.00
2018-05-31T11:44:20.398Z,59.80
2018-05-31T11:48:14.443Z,60.50
2018-05-31T11:52:07.592Z,60.50
2018-05-31T11:56:00.845Z,59.40
2018-05-31T11:59:54.020Z,61.10
2018-05-31T12:03:47.711Z,59.10
2018-05-31T12:07:40.987Z,59.10
2018-05-31T12:11:34.633Z,59.20
2018-05-31T12:15:29.118Z,59.50
2018-05-31T12:19:22.844Z,59.90
2018-05-31T12:23:16.217Z,60.70
2018-05-31T12:27:09.424Z,60.80
2018-05-31T12:31:04.163Z,60.90
2018-05-31T12:34:57.379Z,60.60
2018-05-31T12:38:51.302Z,60.10
2018-05-31T12:42:44.529Z,59.30
2018-05-31T12:46:38.678Z,59.00
2018-05-31T12:50:32.859Z,58.70
2018-05-31T12:54:26.832Z,58.30
2018-05-31T12:58:19.979Z,57.70
2018-05-31T13:02:13.527Z,57.70
2018-05-31T13:06:06.816Z,57.30
2018-05-31T13:10:00.247Z,56.20
2018-05-31T13:13:55.031Z,55.30
2018-05-31T13:17:48.236Z,56.10
2018-05-31T13:21:43.591Z,54.80
2018-05-31T13:25:36.809Z,54.70
2018-05-31T13:29:31.328Z,52.90
2018-05-31T13:33:24.972Z,53.40
2018-05-31T13:37:18.913Z,53.50
2018-05-31T13:41:12.520Z,56.10
2018-05-31T13:45:05.709Z,55.60
2018-05-31T13:48:59.246Z,53.70
2018-05-31T13:52:52.789Z,51.00
2018-05-31T13:56:46.134Z,50.20
2018-05-31T14:00:39.360Z,51.50
2018-05-31T14:04:32.655Z,51.30
2018-05-31T14:08:25.659Z,51.60
2018-05-31T14:12:18.836Z,52.00
2018-05-31T14:16:12.893Z,51.90
2018-05-31T14:20:06.797Z,51.60
2018-05-31T14:24:00.041Z,52.00
2018-05-31T14:27:53.199Z,52.30
2018-05-31T14:31:46.969Z,52.40
2018-05-31T14:35:41.308Z,52.00
2018-05-31T14:39:34.840Z,51.90
2018-05-31T14:43:29.071Z,51.50
2018-05-31T14:47:22.262Z,50.60
2018-05-31T14:51:17.615Z,50.90
2018-05-31T14:55:10.896Z,51.10
2018-05-31T14:59:04.031Z,52.30
2018-05-31T15:02:57.237Z,52.00
2018-05-31T15:06:50.727Z,52.60
2018-05-31T15:10:43.937Z,51.30
2018-05-31T15:14:37.381Z,51.20
2018-05-31T15:18:30.637Z,51.80
2018-05-31T15:22:23.617Z,52.00
2018-05-31T15:26:16.840Z,52.90
2018-05-31T15:30:10.072Z,52.40
2018-05-31T15:34:03.765Z,54.20
2018-05-31T15:37:57.075Z,53.60
2018-05-31T15:41:50.329Z,54.60
2018-05-31T15:45:44.336Z,53.70
2018-05-31T15:49:39.429Z,53.80
2018-05-31T15:53:32.862Z,53.70
2018-05-31T15:57:26.874Z,56.60
2018-05-31T16:01:20.018Z,56.50
2018-05-31T16:05:14.504Z,58.50
2018-05-31T16:09:08.292Z,58.50
2018-05-31T16:13:01.870Z,59.20
2018-05-31T16:16:56.655Z,58.60
2018-05-31T16:20:49.977Z,57.50
2018-05-31T16:24:43.755Z,57.20
2018-05-31T16:28:37.219Z,55.40
2018-05-31T16:32:30.447Z,55.40
2018-05-31T16:36:24.739Z,54.40
2018-05-31T16:40:18.701Z,55.20
2018-05-31T16:44:11.799Z,55.10
2018-05-31T16:48:06.491Z,55.80
2018-05-31T16:52:00.548Z,59.00
2018-05-31T16:55:54.579Z,59.00
2018-05-31T16:59:47.952Z,60.50
2018-05-31T17:03:41.691Z,60.90
2018-05-31T17:07:35.814Z,61.60
2018-05-31T17:11:28.997Z,61.90
2018-05-31T17:15:22.787Z,61.70
2018-05-31T17:19:15.991Z,61.50
2018-05-31T17:23:10.241Z,61.70
2018-05-31T17:27:06.383Z,61.70
2018-05-31T17:30:59.632Z,61.30
2018-05-31T17:34:53.162Z,61.10
2018-05-31T17:38:47.107Z,58.90
2018-05-31T17:42:41.374Z,58.30
2018-05-31T17:46:34.543Z,58.60
2018-05-31T17:50:28.612Z,59.90
2018-05-31T17:54:22.878Z,59.90
2018-05-31T17:58:16.077Z,60.80
2018-05-31T18:02:10.155Z,61.30
2018-05-31T18:06:04.287Z,62.80
2018-05-31T18:09:57.515Z,63.60
2018-05-31T18:13:50.915Z,64.40
2018-05-31T18:17:44.363Z,66.10
2018-05-31T18:21:37.538Z,66.70
2018-05-31T18:25:31.377Z,67.30
2018-05-31T18:29:25.478Z,67.90
2018-05-31T18:33:18.981Z,68.80
2018-05-31T18:37:12.896Z,69.80
2018-05-31T18:41:06.772Z,70.70
2018-05-31T18:45:02.742Z,71.20
2018-05-31T18:48:58.796Z,72.80
2018-05-31T18:52:52.808Z,75.40
2018-05-31T18:56:48.888Z,76.30
2018-05-31T19:00:42.925Z,78.30
2018-05-31T19:04:40.395Z,78.10
2018-05-31T19:08:36.725Z,78.00
2018-05-31T19:12:39.026Z,77.60
2018-05-31T19:16:34.144Z,76.60
2018-05-31T19:20:28.028Z,75.20
2018-05-31T19:24:26.887Z,73.60
2018-05-31T19:28:20.104Z,73.90
2018-05-31T19:32:13.311Z,74.50
2018-05-31T19:36:12.104Z,75.50
2018-05-31T19:40:08.650Z,75.50
2018-05-31T19:44:08.158Z,76.20
2018-05-31T19:48:01.949Z,76.70
2018-05-31T19:52:02.413Z,76.60
2018-05-31T19:55:55.591Z,77.40
2018-05-31T19:59:56.912Z,79.50
2018-05-31T20:03:52.041Z,80.00
2018-05-31T20:07:45.208Z,79.90
2018-05-31T20:11:38.323Z,80.10
2018-05-31T20:15:32.408Z,81.70
2018-05-31T20:19:26.297Z,81.90
2018-05-31T20:23:20.271Z,83.00
2018-05-31T20:27:14.150Z,83.00
2018-05-31T20:31:08.138Z,83.70
2018-05-31T20:35:01.308Z,84.30
2018-05-31T20:38:56.623Z,83.60
2018-05-31T20:42:49.789Z,83.20
2018-05-31T20:46:43.123Z,83.20
2018-05-31T20:50:37.540Z,83.90
2018-05-31T20:54:31.634Z,84.40
2018-05-31T20:58:27.944Z,84.10
2018-05-31T21:02:21.227Z,84.10
2018-05-31T21:06:14.631Z,84.10
2018-05-31T21:10:08.243Z,85.10
2018-05-31T21:14:02.945Z,85.80
2018-05-31T21:17:56.286Z,85.60
2018-05-31T21:21:49.460Z,85.60
2018-05-31T21:25:42.694Z,86.40
2018-05-31T21:29:41.831Z,87.20
2018-05-31T21:33:35.159Z,88.70
2018-05-31T21:37:29.590Z,89.20
2018-05-31T21:41:22.715Z,89.60
2018-05-31T21:45:16.691Z,90.70
2018-05-31T21:49:10.083Z,90.60
2018-05-31T21:53:04.420Z,91.40
2018-05-31T21:56:57.603Z,91.30
2018-05-31T22:00:55.974Z,91.60
2018-05-31T22:04:49.447Z,91.70
2018-05-31T22:08:42.791Z,91.80
2018-05-31T22:12:35.942Z,91.90
2018-05-31T22:16:29.415Z,91.90
2018-05-31T22:20:22.785Z,91.80
2018-05-31T22:24:16.125Z,91.60
2018-05-31T22:28:09.701Z,91.60
2018-05-31T22:32:05.568Z,91.70
2018-05-31T22:36:00.014Z,91.70
2018-05-31T22:39:53.182Z,91.80
2018-05-31T22:43:46.359Z,92.00
2018-05-31T22:47:39.489Z,92.20
2018-05-31T22:51:32.997Z,92.50
2018-05-31T22:55:26.173Z,92.60
2018-05-31T22:59:19.389Z,92.80
2018-05-31T23:03:12.521Z,92.80
2018-05-31T23:07:05.888Z,92.70
2018-05-31T23:10:59.132Z,93.00
2018-05-31T23:14:53.013Z,93.20
2018-05-31T23:18:46.932Z,93.50
2018-05-31T23:22:40.101Z,93.50
2018-05-31T23:26:33.256Z,93.60
2018-05-31T23:30:26.937Z,93.30
2018-05-31T23:34:20.118Z,93.30
2018-05-31T23:38:13.280Z,93.40
2018-05-31T23:42:06.470Z,93.20
2018-05-31T23:45:59.884Z,93.20
2018-05-31T23:49:54.073Z,93.30
2018-05-31T23:53:47.210Z,93.50
2018-05-31T23:57:40.639Z,93.70
